Columbine Hills, CO (80128)

5:10 PM MDT on July 26, 2016 (GMT -0600)
Woodbury Hills | | Change Station

Elev 5735 ft 39.60 °N, 105.12 °W | Updated 7 minutes ago

Overcast
Overcast
87.1 °F
Feels Like 84 °F
N
0.0
Wind Variable Wind from SSE

Today
High -- | Low -- °F
--% Chance of Precip.
Yesterday
High -- | Low -- °F
Precip. -- in
Pressure 29.91 in
Visibility 10.0 miles
Clouds Mostly Cloudy 15000 ft
Overcast 22000 ft
Heat Index 84 °F
Dew Point 45 °F
Humidity 23%
Rainfall 0.00 in
Snow Depth Not available.
5:55 AM 8:18 PM
Waning Gibbous, 50% visible
METAR KAPA 262253Z 23010KT 10SM BKN150 OVC220 30/00 A3017 RMK AO2 SLP129 T03000000
Pressure 29.91 in
Visibility 10.0 miles
Clouds Mostly Cloudy 15000 ft
Overcast 22000 ft
Heat Index 84 °F
Dew Point 45 °F
Humidity 23%
Rainfall 0.00 in
Snow Depth Not available.
5:55 AM 8:18 PM
Waning Gibbous, 50% visible
METAR KAPA 262253Z 23010KT 10SM BKN150 OVC220 30/00 A3017 RMK AO2 SLP129 T03000000

10-Day Weather Forecast

Almanac

Astronomy

Jul. 26, 2016 Rise Set
Actual Time
Civil Twilight
Nautical Twilight
Astronomical Twilight
Moon
Length of Visible Light
Length of Day
Tomorrow will be .
, % of the Moon is Illuminated

Today's Extremes

State Highs State Lows

Community

WunderPhotos

Upload Photos

1,927,729 photos uploaded!

WunderBlog® & News

Nearby

Air Quality

  Air Quality AQ Index Pollutant
Not available.

Snow Depth

Station Depth Elevation

Earthquake Activity

City Distance Mag. Time & Date
Minimum magnitude displayed is 2.5.

Coastal Water Temperatures

Place Temperature

Stations

Nearby Weather Stations

Station Location Temp. Windchill Dew Point Humidity Wind Precip. Elev Updated Type
                   

Watches & Warnings

There are currently no watches in effect.